Alden, Iowa
Current Conditions -  °F | °C
As of 6:55 PM on Tuesday 21 Oct 2014 (Local Time) from KIFA Reporting Station
Clear Clear  
Wind Chill: 51°   Ceiling: Unl
Heat Index: 51°   Visibility: 10mi
Dew Point: 39°   Wind: 6mph
Humidity: 64%   Direction: 110°ESE
Pressure: 30.16"   Gusts: NA
Location:  42.52°N, 93.38°W
Report Text: KIFA 212355Z AUTO 11005KT 10SM CLR 11/04 A3016 RMK AO2 T01060040 10170 20106
Loading
Personal Weather Stations






























Interactive Weather Map New forecast layout! Learn more

10-Day Weather Forecast

Advertisements
Track Severe Weather on mobile